createdAt,value
2022-12-25T00:02:08.468Z,3.15
2022-12-25T00:05:11.130Z,3.15
2022-12-25T00:08:14.240Z,3.16
2022-12-25T00:11:20.059Z,3.15
2022-12-25T00:14:23.054Z,3.16
2022-12-25T00:17:25.752Z,3.22
2022-12-25T00:20:28.885Z,3.15
2022-12-25T00:23:32.051Z,3.23
2022-12-25T00:26:35.272Z,3.29
2022-12-25T00:29:38.170Z,3.27
2022-12-25T00:32:42.585Z,3.26
2022-12-25T00:35:45.198Z,3.35
2022-12-25T00:38:48.387Z,3.37
2022-12-25T00:42:09.471Z,3.37
2022-12-25T00:45:15.906Z,3.37
2022-12-25T00:48:18.722Z,3.37
2022-12-25T00:51:21.801Z,3.39
2022-12-25T00:54:24.377Z,3.41
2022-12-25T00:57:27.909Z,3.42
2022-12-25T01:00:30.689Z,3.45
2022-12-25T01:03:33.632Z,3.44
2022-12-25T01:06:36.401Z,3.46
2022-12-25T01:09:58.927Z,3.45
2022-12-25T01:13:01.481Z,3.45
2022-12-25T01:16:10.426Z,3.45
2022-12-25T01:19:13.513Z,3.44
2022-12-25T01:22:16.808Z,3.45
2022-12-25T01:25:19.510Z,3.42
2022-12-25T01:28:22.628Z,3.41
2022-12-25T01:31:25.641Z,3.44
2022-12-25T01:34:28.625Z,3.45
2022-12-25T01:37:31.165Z,3.43
2022-12-25T01:40:37.231Z,3.47
2022-12-25T01:43:58.817Z,3.50
2022-12-25T01:47:02.344Z,3.46
2022-12-25T01:50:05.446Z,3.46
2022-12-25T01:53:08.481Z,3.46
2022-12-25T01:56:11.231Z,3.48
2022-12-25T01:59:19.013Z,3.46
2022-12-25T02:02:22.185Z,3.47
2022-12-25T02:05:28.995Z,3.46
2022-12-25T02:08:32.424Z,3.46
2022-12-25T02:11:54.441Z,3.47
2022-12-25T02:15:04.993Z,3.45
2022-12-25T02:18:34.338Z,3.47
2022-12-25T02:22:22.849Z,3.50
2022-12-25T02:25:37.520Z,3.53
2022-12-25T02:28:56.485Z,3.49
2022-12-25T02:32:08.671Z,3.51
2022-12-25T02:35:31.559Z,3.50
2022-12-25T02:38:39.768Z,3.54
2022-12-25T02:41:45.388Z,3.54
2022-12-25T02:45:08.983Z,3.44
2022-12-25T02:48:31.066Z,3.48
2022-12-25T02:51:56.156Z,3.45
2022-12-25T02:55:23.388Z,3.45
2022-12-25T02:58:46.115Z,3.41
2022-12-25T03:02:07.270Z,3.49
2022-12-25T03:05:31.530Z,3.40
2022-12-25T03:08:40.538Z,3.40
2022-12-25T03:11:46.908Z,3.44
2022-12-25T03:15:08.515Z,3.47
2022-12-25T03:18:15.400Z,3.51
2022-12-25T03:21:36.394Z,3.60
2022-12-25T03:24:59.236Z,3.59
2022-12-25T03:28:02.143Z,3.53
2022-12-25T03:31:13.963Z,3.56
2022-12-25T03:34:45.581Z,3.54
2022-12-25T03:38:13.056Z,3.60
2022-12-25T03:41:37.127Z,3.49
2022-12-25T03:44:54.871Z,3.35
2022-12-25T03:48:16.453Z,3.40
2022-12-25T03:51:42.343Z,3.46
2022-12-25T03:55:05.787Z,3.51
2022-12-25T03:58:40.213Z,3.63
2022-12-25T04:02:01.279Z,3.69
2022-12-25T04:05:23.426Z,3.61
2022-12-25T04:08:44.451Z,3.70
2022-12-25T04:12:05.856Z,3.69
2022-12-25T04:15:27.751Z,3.75
2022-12-25T04:18:49.265Z,3.76
2022-12-25T04:22:10.047Z,3.76
2022-12-25T04:25:31.430Z,3.78
2022-12-25T04:28:52.675Z,3.76
2022-12-25T04:32:13.982Z,3.83
2022-12-25T04:35:35.702Z,3.82
2022-12-25T04:38:40.426Z,3.71
2022-12-25T04:41:43.050Z,3.74
2022-12-25T04:44:46.104Z,3.74
2022-12-25T04:47:48.767Z,3.79
2022-12-25T04:50:51.963Z,3.73
2022-12-25T04:53:55.118Z,3.64
2022-12-25T04:56:58.077Z,3.64
2022-12-25T05:00:01.032Z,3.71
2022-12-25T05:03:04.654Z,3.79
2022-12-25T05:06:07.879Z,3.83
2022-12-25T05:09:11.243Z,3.86
2022-12-25T05:12:13.922Z,3.90
2022-12-25T05:15:17.538Z,3.92
2022-12-25T05:18:20.151Z,3.92
2022-12-25T05:21:23.483Z,3.93
2022-12-25T05:24:28.147Z,3.90
2022-12-25T05:27:31.468Z,3.91
2022-12-25T05:30:35.121Z,3.94
2022-12-25T05:33:38.227Z,3.90
2022-12-25T05:36:41.012Z,3.88
2022-12-25T05:39:43.939Z,3.88
2022-12-25T05:42:46.530Z,3.90
2022-12-25T05:45:50.612Z,3.70
2022-12-25T05:48:53.176Z,3.68
2022-12-25T05:51:56.602Z,3.77
2022-12-25T05:54:59.899Z,3.80
2022-12-25T05:58:03.301Z,3.83
2022-12-25T06:01:12.402Z,3.89
2022-12-25T06:04:15.673Z,3.85
2022-12-25T06:07:18.523Z,3.94
2022-12-25T06:10:22.364Z,3.95
2022-12-25T06:13:25.127Z,3.90
2022-12-25T06:16:34.026Z,3.91
2022-12-25T06:19:40.089Z,3.98
2022-12-25T06:22:43.019Z,4.04
2022-12-25T06:25:45.771Z,4.02
2022-12-25T06:28:48.897Z,4.01
2022-12-25T06:31:55.240Z,3.96
2022-12-25T06:34:58.964Z,4.00
2022-12-25T06:38:01.636Z,4.00
2022-12-25T06:41:09.489Z,4.02
2022-12-25T06:44:12.156Z,4.04
2022-12-25T06:47:15.480Z,4.12
2022-12-25T06:50:17.952Z,4.12
2022-12-25T06:53:20.897Z,4.14
2022-12-25T06:56:26.308Z,4.09
2022-12-25T06:59:29.277Z,4.09
2022-12-25T07:02:33.457Z,4.13
2022-12-25T07:05:38.344Z,4.04
2022-12-25T07:08:40.947Z,4.02
2022-12-25T07:11:46.373Z,4.09
2022-12-25T07:14:50.389Z,4.10
2022-12-25T07:17:53.443Z,4.15
2022-12-25T07:20:56.159Z,4.14
2022-12-25T07:23:59.220Z,4.18
2022-12-25T07:27:01.826Z,4.24
2022-12-25T07:30:05.668Z,4.24
2022-12-25T07:33:08.217Z,4.25
2022-12-25T07:36:12.902Z,4.28
2022-12-25T07:39:16.671Z,4.27
2022-12-25T07:42:25.019Z,4.22
2022-12-25T07:45:30.226Z,4.21
2022-12-25T07:48:33.498Z,4.20
2022-12-25T07:51:36.143Z,4.22
2022-12-25T07:54:39.199Z,4.23
2022-12-25T07:57:41.822Z,4.22
2022-12-25T08:00:44.816Z,4.19
2022-12-25T08:03:59.330Z,4.13
2022-12-25T08:07:02.816Z,4.15
2022-12-25T08:10:05.767Z,4.09
2022-12-25T08:13:14.232Z,4.12
2022-12-25T08:16:17.350Z,4.18
2022-12-25T08:19:20.841Z,4.20
2022-12-25T08:22:23.923Z,4.14
2022-12-25T08:25:26.908Z,4.07
2022-12-25T08:28:30.053Z,4.18
2022-12-25T08:31:37.238Z,4.17
2022-12-25T08:34:42.261Z,4.14
2022-12-25T08:37:45.238Z,4.24
2022-12-25T08:40:48.381Z,4.17
2022-12-25T08:43:51.839Z,4.22
2022-12-25T08:46:54.503Z,4.19
2022-12-25T08:49:58.173Z,4.22
2022-12-25T08:53:01.038Z,4.22
2022-12-25T08:56:05.159Z,4.25
2022-12-25T08:59:07.793Z,4.23
2022-12-25T09:02:12.634Z,4.23
2022-12-25T09:05:15.477Z,4.14
2022-12-25T09:08:20.104Z,4.25
2022-12-25T09:11:22.826Z,4.20
2022-12-25T09:14:26.246Z,4.32
2022-12-25T09:17:28.861Z,4.33
2022-12-25T09:20:31.953Z,4.44
2022-12-25T09:23:35.018Z,4.49
2022-12-25T09:26:38.540Z,4.46
2022-12-25T09:29:41.580Z,4.60
2022-12-25T09:32:44.885Z,4.47
2022-12-25T09:36:17.096Z,4.52
2022-12-25T09:39:20.329Z,4.51
2022-12-25T09:42:25.739Z,4.64
2022-12-25T09:45:36.985Z,4.75
2022-12-25T09:48:41.223Z,4.75
2022-12-25T09:51:44.958Z,4.87
2022-12-25T09:55:08.785Z,4.94
2022-12-25T09:58:13.592Z,4.97
2022-12-25T10:01:45.593Z,4.99
2022-12-25T10:04:48.842Z,5.02
2022-12-25T10:08:09.845Z,5.13
2022-12-25T10:11:39.695Z,5.11
2022-12-25T10:15:20.569Z,5.14
2022-12-25T10:18:52.908Z,5.17
2022-12-25T10:21:59.540Z,5.10
2022-12-25T10:25:04.913Z,5.14
2022-12-25T10:28:16.174Z,5.22
2022-12-25T10:31:24.766Z,5.26
2022-12-25T10:34:29.780Z,5.35
2022-12-25T10:37:33.385Z,5.32
2022-12-25T10:40:47.402Z,5.33
2022-12-25T10:43:54.070Z,5.41
2022-12-25T10:47:01.878Z,5.46
2022-12-25T10:50:25.454Z,5.30
2022-12-25T10:53:29.691Z,5.36
2022-12-25T10:56:33.331Z,5.31
2022-12-25T10:59:45.945Z,5.35
2022-12-25T11:02:49.655Z,5.42
2022-12-25T11:05:52.751Z,5.49
2022-12-25T11:09:00.981Z,5.51
2022-12-25T11:12:03.966Z,5.50
2022-12-25T11:15:37.898Z,5.56
2022-12-25T11:19:00.481Z,5.53
2022-12-25T11:22:05.711Z,5.59
2022-12-25T11:25:14.029Z,5.58
2022-12-25T11:28:17.277Z,5.64
2022-12-25T11:31:22.533Z,5.58
2022-12-25T11:34:39.134Z,5.61
2022-12-25T11:37:54.452Z,5.50
2022-12-25T11:41:01.742Z,5.66
2022-12-25T11:44:07.536Z,5.69
2022-12-25T11:47:35.559Z,5.62
2022-12-25T11:50:45.725Z,5.69
2022-12-25T11:53:53.320Z,5.68
2022-12-25T11:56:58.416Z,5.74
2022-12-25T12:00:10.527Z,5.72
2022-12-25T12:03:16.290Z,5.66
2022-12-25T12:06:46.518Z,5.68
2022-12-25T12:09:56.679Z,5.56
2022-12-25T12:13:24.779Z,5.60
2022-12-25T12:16:27.560Z,5.62
2022-12-25T12:19:32.003Z,5.65
2022-12-25T12:22:34.749Z,5.67
2022-12-25T12:25:42.298Z,5.67
2022-12-25T12:28:46.666Z,5.68
2022-12-25T12:31:51.445Z,5.69
2022-12-25T12:34:58.496Z,5.67
2022-12-25T12:38:08.389Z,5.68
2022-12-25T12:41:14.805Z,5.53
2022-12-25T12:44:18.879Z,5.51
2022-12-25T12:47:44.418Z,5.62
2022-12-25T12:50:47.871Z,5.59
2022-12-25T12:57:40.503Z,5.60
2022-12-25T13:00:58.809Z,5.45
2022-12-25T13:04:30.286Z,5.51
2022-12-25T13:08:15.600Z,5.50
2022-12-25T13:11:29.741Z,5.56
2022-12-25T13:14:35.274Z,5.55
2022-12-25T13:18:25.731Z,5.61
2022-12-25T13:22:04.453Z,5.50
2022-12-25T13:25:19.647Z,5.53
2022-12-25T13:32:50.908Z,5.56
2022-12-25T13:36:04.645Z,5.57
2022-12-25T13:39:16.483Z,5.52
2022-12-25T13:42:22.989Z,5.48
2022-12-25T13:45:28.520Z,5.46
2022-12-25T13:48:32.331Z,5.45
2022-12-25T13:51:35.082Z,5.44
2022-12-25T13:54:38.367Z,5.48
2022-12-25T13:57:45.158Z,5.46
2022-12-25T14:00:53.253Z,5.51
2022-12-25T14:03:56.264Z,5.48
2022-12-25T14:07:09.567Z,5.33
2022-12-25T14:10:13.227Z,5.44
2022-12-25T14:13:16.915Z,5.46
2022-12-25T14:16:21.345Z,5.47
2022-12-25T14:19:32.663Z,5.46
2022-12-25T14:22:38.754Z,5.45
2022-12-25T14:25:44.801Z,5.45
2022-12-25T14:29:17.233Z,5.40
2022-12-25T14:32:23.667Z,5.39
2022-12-25T14:35:26.427Z,5.38
2022-12-25T14:38:39.809Z,5.35
2022-12-25T14:41:42.417Z,5.29
2022-12-25T14:45:01.779Z,5.34
2022-12-25T14:48:25.237Z,5.29
2022-12-25T14:51:29.849Z,5.28
2022-12-25T14:54:32.563Z,5.26
2022-12-25T14:57:39.888Z,5.16
2022-12-25T15:00:42.831Z,5.12
2022-12-25T15:03:45.994Z,5.15
2022-12-25T15:07:07.561Z,5.21
2022-12-25T15:10:57.631Z,5.20
2022-12-25T15:13:36.600Z,5.20
2022-12-25T15:16:46.465Z,5.19
2022-12-25T15:19:49.140Z,5.23
2022-12-25T15:23:18.564Z,5.13
2022-12-25T15:26:16.673Z,5.13
2022-12-25T15:29:38.135Z,5.09
2022-12-25T15:32:42.769Z,5.02
2022-12-25T15:35:45.962Z,4.93
2022-12-25T15:38:49.274Z,4.72
2022-12-25T15:42:11.156Z,4.62
2022-12-25T15:45:25.875Z,4.75
2022-12-25T15:48:29.371Z,4.52
2022-12-25T15:51:32.245Z,4.53
2022-12-25T15:54:35.797Z,4.60
2022-12-25T15:57:40.933Z,4.69
2022-12-25T16:00:44.127Z,4.75
2022-12-25T16:03:47.509Z,4.76
2022-12-25T16:06:51.569Z,4.80
2022-12-25T16:09:54.412Z,4.75
2022-12-25T16:12:57.550Z,4.77
2022-12-25T16:16:00.521Z,4.68
2022-12-25T16:19:04.564Z,4.70
2022-12-25T16:22:27.364Z,4.74
2022-12-25T16:25:30.940Z,4.71
2022-12-25T16:28:33.497Z,4.61
2022-12-25T16:31:37.776Z,4.71
2022-12-25T16:34:41.159Z,4.78
2022-12-25T16:37:44.250Z,4.75
2022-12-25T16:40:56.177Z,4.83
2022-12-25T16:43:59.327Z,4.76
2022-12-25T16:47:02.068Z,4.81
2022-12-25T16:50:06.427Z,4.86
2022-12-25T16:53:09.744Z,4.87
2022-12-25T16:56:15.273Z,4.89
2022-12-25T16:59:18.266Z,4.85
2022-12-25T17:02:22.101Z,4.82
2022-12-25T17:05:25.200Z,4.78
2022-12-25T17:08:28.519Z,4.79
2022-12-25T17:11:31.601Z,4.78
2022-12-25T17:14:35.479Z,4.71
2022-12-25T17:17:38.080Z,4.66
2022-12-25T17:20:50.060Z,4.63
2022-12-25T17:23:58.082Z,4.61
2022-12-25T17:27:08.926Z,4.51
2022-12-25T17:30:11.857Z,4.48
2022-12-25T17:33:15.047Z,4.48
2022-12-25T17:36:19.517Z,4.41
2022-12-25T17:39:22.936Z,4.37
2022-12-25T17:42:25.953Z,4.30
2022-12-25T17:45:29.206Z,4.29
2022-12-25T17:48:31.921Z,4.22
2022-12-25T17:51:35.065Z,4.25
2022-12-25T17:54:40.914Z,4.22
2022-12-25T17:57:44.361Z,4.15
2022-12-25T18:00:47.029Z,4.01
2022-12-25T18:03:51.049Z,3.99
2022-12-25T18:06:53.848Z,4.07
2022-12-25T18:09:57.202Z,4.09
2022-12-25T18:13:00.013Z,4.10
2022-12-25T18:16:05.134Z,4.20
2022-12-25T18:19:09.538Z,4.22
2022-12-25T18:22:12.566Z,4.25
2022-12-25T18:25:15.207Z,4.24
2022-12-25T18:28:18.305Z,4.31
2022-12-25T18:31:24.746Z,4.28
2022-12-25T18:34:27.924Z,4.21
2022-12-25T18:37:35.902Z,4.28
2022-12-25T18:40:47.859Z,4.30
2022-12-25T18:43:54.322Z,4.23
2022-12-25T18:46:58.407Z,4.26
2022-12-25T18:50:01.515Z,4.40
2022-12-25T18:53:05.885Z,4.46
2022-12-25T18:56:11.648Z,4.51
2022-12-25T18:59:16.968Z,4.46
2022-12-25T19:02:28.481Z,4.51
2022-12-25T19:05:32.365Z,4.55
2022-12-25T19:08:35.343Z,4.57
2022-12-25T19:11:45.977Z,4.64
2022-12-25T19:14:49.675Z,4.51
2022-12-25T19:17:52.638Z,4.50
2022-12-25T19:20:55.474Z,4.49
2022-12-25T19:23:59.262Z,4.63
2022-12-25T19:27:02.787Z,4.66
2022-12-25T19:30:06.829Z,4.72
2022-12-25T19:33:17.268Z,4.68
2022-12-25T19:36:21.238Z,4.77
2022-12-25T19:39:24.165Z,4.77
2022-12-25T19:42:27.961Z,4.78
2022-12-25T19:45:31.135Z,4.85
2022-12-25T19:48:35.541Z,4.87
2022-12-25T19:51:41.180Z,4.89
2022-12-25T19:54:44.437Z,4.96
2022-12-25T19:57:47.150Z,4.96
2022-12-25T20:00:58.600Z,4.95
2022-12-25T20:04:01.268Z,4.97
2022-12-25T20:07:06.799Z,5.05
2022-12-25T20:10:10.160Z,5.12
2022-12-25T20:13:13.919Z,5.20
2022-12-25T20:16:16.822Z,5.12
2022-12-25T20:19:20.388Z,5.14
2022-12-25T20:22:23.025Z,5.15
2022-12-25T20:25:26.609Z,5.11
2022-12-25T20:28:29.459Z,5.10
2022-12-25T20:31:35.277Z,5.14
2022-12-25T20:34:39.038Z,5.12
2022-12-25T20:37:43.714Z,5.17
2022-12-25T20:41:25.237Z,5.14
2022-12-25T20:44:10.557Z,5.23
2022-12-25T20:47:13.510Z,5.23
2022-12-25T20:50:16.809Z,5.23
2022-12-25T20:53:20.327Z,5.28
2022-12-25T20:56:26.501Z,5.36
2022-12-25T20:59:35.146Z,5.25
2022-12-25T21:02:40.875Z,5.20
2022-12-25T21:05:56.364Z,5.30
2022-12-25T21:09:00.542Z,5.28
2022-12-25T21:12:03.674Z,5.30
2022-12-25T21:15:13.275Z,5.36
2022-12-25T21:18:20.644Z,5.33
2022-12-25T21:21:23.928Z,5.31
2022-12-25T21:24:26.846Z,5.42
2022-12-25T21:27:30.637Z,5.30
2022-12-25T21:30:34.255Z,5.33
2022-12-25T21:33:53.802Z,5.21
2022-12-25T21:36:57.287Z,5.06
2022-12-25T21:40:00.651Z,5.12
2022-12-25T21:51:23.529Z,5.12
2022-12-25T21:54:27.567Z,5.09
2022-12-25T21:57:30.632Z,5.09
2022-12-25T22:00:34.189Z,4.87
2022-12-25T22:03:38.504Z,4.94
2022-12-25T22:07:14.863Z,4.84
2022-12-25T22:10:18.055Z,4.90
2022-12-25T22:13:39.316Z,4.98
2022-12-25T22:17:01.351Z,4.88
2022-12-25T22:20:07.366Z,4.94
2022-12-25T22:23:24.806Z,4.98
2022-12-25T22:26:28.207Z,4.90
2022-12-25T22:29:31.072Z,4.94
2022-12-25T22:32:34.265Z,4.95
2022-12-25T22:35:37.251Z,4.83
2022-12-25T22:38:42.754Z,4.70
2022-12-25T22:41:45.427Z,4.74
2022-12-25T22:44:48.817Z,4.71
2022-12-25T22:47:51.592Z,4.78
2022-12-25T22:50:55.016Z,4.76
2022-12-25T22:54:03.368Z,4.71
2022-12-25T22:57:07.193Z,4.66
2022-12-25T23:00:10.530Z,4.69
2022-12-25T23:03:13.637Z,4.77
2022-12-25T23:06:16.449Z,4.80
2022-12-25T23:09:24.836Z,4.87
2022-12-25T23:12:46.080Z,4.80
2022-12-25T23:15:49.633Z,4.90
2022-12-25T23:19:10.753Z,4.84
2022-12-25T23:22:32.646Z,4.79
2022-12-25T23:25:54.453Z,4.83
2022-12-25T23:29:16.111Z,4.78
2022-12-25T23:32:23.085Z,4.69
2022-12-25T23:35:26.130Z,4.69
2022-12-25T23:38:29.282Z,4.65
2022-12-25T23:41:33.068Z,4.53
2022-12-25T23:44:35.963Z,4.61
2022-12-25T23:47:39.214Z,4.64
2022-12-25T23:50:41.931Z,4.65
2022-12-25T23:53:45.158Z,4.61
2022-12-25T23:56:47.794Z,4.61
2022-12-25T23:59:50.845Z,4.60
